sensor_id;sensor_type;location;lat;lon;timestamp;pressure;altitude;pressure_sealevel;temperature;humidity
35848;BME280;22332;51.954;20.118;2023-07-09T00:00:46;100548.95;;;17.79;54.33
35848;BME280;22332;51.954;20.118;2023-07-09T00:04:13;100548.41;;;17.74;54.35
35848;BME280;22332;51.954;20.118;2023-07-09T00:07:23;100551.33;;;17.70;54.48
35848;BME280;22332;51.954;20.118;2023-07-09T00:10:30;100554.31;;;17.66;54.55
35848;BME280;22332;51.954;20.118;2023-07-09T00:13:35;100555.70;;;17.63;54.59
35848;BME280;22332;51.954;20.118;2023-07-09T00:16:42;100553.49;;;17.58;54.68
35848;BME280;22332;51.954;20.118;2023-07-09T00:19:48;100559.34;;;17.57;54.71
35848;BME280;22332;51.954;20.118;2023-07-09T00:22:54;100559.61;;;17.57;54.88
35848;BME280;22332;51.954;20.118;2023-07-09T00:25:59;100562.30;;;17.64;55.27
35848;BME280;22332;51.954;20.118;2023-07-09T00:29:10;100560.90;;;17.59;55.02
35848;BME280;22332;51.954;20.118;2023-07-09T00:32:18;100563.19;;;17.53;55.11
35848;BME280;22332;51.954;20.118;2023-07-09T00:35:25;100569.09;;;17.50;55.35
35848;BME280;22332;51.954;20.118;2023-07-09T00:38:31;100572.31;;;17.49;55.17
35848;BME280;22332;51.954;20.118;2023-07-09T00:41:45;100570.64;;;17.42;55.32
35848;BME280;22332;51.954;20.118;2023-07-09T00:44:53;100572.46;;;17.37;55.59
35848;BME280;22332;51.954;20.118;2023-07-09T00:48:00;100570.33;;;17.41;56.06
35848;BME280;22332;51.954;20.118;2023-07-09T00:51:10;100568.42;;;17.45;55.68
35848;BME280;22332;51.954;20.118;2023-07-09T00:54:23;100568.90;;;17.40;55.90
35848;BME280;22332;51.954;20.118;2023-07-09T00:57:35;100572.26;;;17.39;55.91
35848;BME280;22332;51.954;20.118;2023-07-09T01:00:46;100568.45;;;17.36;55.87
35848;BME280;22332;51.954;20.118;2023-07-09T01:03:58;100569.22;;;17.31;55.78
35848;BME280;22332;51.954;20.118;2023-07-09T01:07:05;100566.85;;;17.24;55.92
35848;BME280;22332;51.954;20.118;2023-07-09T01:10:12;100565.42;;;17.18;56.16
35848;BME280;22332;51.954;20.118;2023-07-09T01:13:18;100568.15;;;17.18;56.19
35848;BME280;22332;51.954;20.118;2023-07-09T01:16:27;100569.23;;;17.21;56.48
35848;BME280;22332;51.954;20.118;2023-07-09T01:19:40;100568.34;;;17.21;56.18
35848;BME280;22332;51.954;20.118;2023-07-09T01:22:49;100569.70;;;17.13;56.27
35848;BME280;22332;51.954;20.118;2023-07-09T01:25:55;100567.30;;;17.09;56.49
35848;BME280;22332;51.954;20.118;2023-07-09T01:29:00;100569.08;;;17.06;56.43
35848;BME280;22332;51.954;20.118;2023-07-09T01:32:08;100568.98;;;17.11;56.73
35848;BME280;22332;51.954;20.118;2023-07-09T01:35:15;100567.52;;;17.14;56.65
35848;BME280;22332;51.954;20.118;2023-07-09T01:38:22;100568.52;;;17.08;56.48
35848;BME280;22332;51.954;20.118;2023-07-09T01:41:27;100571.18;;;17.02;56.74
35848;BME280;22332;51.954;20.118;2023-07-09T01:44:38;100570.97;;;17.05;56.88
35848;BME280;22332;51.954;20.118;2023-07-09T01:47:44;100572.05;;;16.99;56.84
35848;BME280;22332;51.954;20.118;2023-07-09T01:50:50;100571.23;;;17.00;57.11
35848;BME280;22332;51.954;20.118;2023-07-09T01:53:56;100572.39;;;17.03;56.86
35848;BME280;22332;51.954;20.118;2023-07-09T01:57:16;100577.61;;;16.97;56.94
35848;BME280;22332;51.954;20.118;2023-07-09T02:00:23;100580.96;;;16.93;57.30
35848;BME280;22332;51.954;20.118;2023-07-09T02:03:29;100577.08;;;16.97;57.05
35848;BME280;22332;51.954;20.118;2023-07-09T02:06:34;100580.36;;;16.90;56.97
35848;BME280;22332;51.954;20.118;2023-07-09T02:09:40;100587.09;;;16.88;57.55
35848;BME280;22332;51.954;20.118;2023-07-09T02:12:46;100591.08;;;17.25;59.16
35848;BME280;22332;51.954;20.118;2023-07-09T02:15:52;100589.38;;;17.95;58.66
35848;BME280;22332;51.954;20.118;2023-07-09T02:18:57;100589.91;;;18.42;57.93
35848;BME280;22332;51.954;20.118;2023-07-09T02:22:04;100589.10;;;18.64;57.65
35848;BME280;22332;51.954;20.118;2023-07-09T02:25:10;100582.04;;;18.88;57.84
35848;BME280;22332;51.954;20.118;2023-07-09T02:28:16;100583.35;;;19.38;57.88
35848;BME280;22332;51.954;20.118;2023-07-09T02:31:22;100581.67;;;19.75;56.84
35848;BME280;22332;51.954;20.118;2023-07-09T02:34:29;100587.66;;;19.91;57.09
35848;BME280;22332;51.954;20.118;2023-07-09T02:37:34;100584.89;;;20.19;56.56
35848;BME280;22332;51.954;20.118;2023-07-09T02:40:40;100585.48;;;20.20;56.22
35848;BME280;22332;51.954;20.118;2023-07-09T02:43:46;100591.70;;;20.37;56.05
35848;BME280;22332;51.954;20.118;2023-07-09T02:46:51;100592.23;;;20.37;55.71
35848;BME280;22332;51.954;20.118;2023-07-09T02:49:57;100594.27;;;20.41;55.87
35848;BME280;22332;51.954;20.118;2023-07-09T02:53:02;100590.00;;;20.52;55.47
35848;BME280;22332;51.954;20.118;2023-07-09T02:56:08;100587.55;;;20.57;55.35
35848;BME280;22332;51.954;20.118;2023-07-09T02:59:13;100588.98;;;20.65;55.18
35848;BME280;22332;51.954;20.118;2023-07-09T03:02:19;100592.84;;;20.75;55.14
35848;BME280;22332;51.954;20.118;2023-07-09T03:05:25;100593.70;;;20.91;54.98
35848;BME280;22332;51.954;20.118;2023-07-09T03:08:30;100598.85;;;21.04;54.64
35848;BME280;22332;51.954;20.118;2023-07-09T03:11:36;100597.95;;;21.14;54.58
35848;BME280;22332;51.954;20.118;2023-07-09T03:14:42;100600.77;;;21.25;54.32
35848;BME280;22332;51.954;20.118;2023-07-09T03:17:48;100601.27;;;21.27;53.77
35848;BME280;22332;51.954;20.118;2023-07-09T03:20:53;100599.52;;;21.12;53.79
35848;BME280;22332;51.954;20.118;2023-07-09T03:24:00;100599.30;;;21.19;53.76
35848;BME280;22332;51.954;20.118;2023-07-09T03:27:07;100600.16;;;21.22;53.57
35848;BME280;22332;51.954;20.118;2023-07-09T03:30:14;100600.80;;;21.29;53.44
35848;BME280;22332;51.954;20.118;2023-07-09T03:33:19;100601.38;;;21.54;53.53
35848;BME280;22332;51.954;20.118;2023-07-09T03:36:25;100603.67;;;21.77;52.99
35848;BME280;22332;51.954;20.118;2023-07-09T03:39:32;100604.07;;;21.94;52.91
35848;BME280;22332;51.954;20.118;2023-07-09T03:42:38;100603.80;;;22.20;52.72
35848;BME280;22332;51.954;20.118;2023-07-09T03:45:45;100604.42;;;22.34;52.27
35848;BME280;22332;51.954;20.118;2023-07-09T03:48:51;100607.63;;;22.35;52.28
35848;BME280;22332;51.954;20.118;2023-07-09T03:51:57;100608.27;;;22.42;52.24
35848;BME280;22332;51.954;20.118;2023-07-09T03:55:03;100612.06;;;22.67;52.03
35848;BME280;22332;51.954;20.118;2023-07-09T03:58:09;100614.34;;;22.82;51.66
35848;BME280;22332;51.954;20.118;2023-07-09T04:01:14;100615.77;;;22.94;51.40
35848;BME280;22332;51.954;20.118;2023-07-09T04:04:21;100620.23;;;23.08;51.47
35848;BME280;22332;51.954;20.118;2023-07-09T04:07:26;100617.19;;;23.25;51.31
35848;BME280;22332;51.954;20.118;2023-07-09T04:10:32;100618.89;;;23.41;50.84
35848;BME280;22332;51.954;20.118;2023-07-09T04:13:38;100622.21;;;23.52;50.71
35848;BME280;22332;51.954;20.118;2023-07-09T04:16:43;100617.13;;;23.56;50.62
35848;BME280;22332;51.954;20.118;2023-07-09T04:19:49;100619.83;;;23.63;50.30
35848;BME280;22332;51.954;20.118;2023-07-09T04:22:54;100623.67;;;23.55;49.50
35848;BME280;22332;51.954;20.118;2023-07-09T04:26:00;100620.99;;;23.36;49.57
35848;BME280;22332;51.954;20.118;2023-07-09T04:29:07;100622.16;;;23.19;49.95
35848;BME280;22332;51.954;20.118;2023-07-09T04:32:14;100622.33;;;23.05;50.05
35848;BME280;22332;51.954;20.118;2023-07-09T04:35:20;100625.55;;;22.87;49.74
35848;BME280;22332;51.954;20.118;2023-07-09T04:38:25;100632.95;;;22.75;50.29
35848;BME280;22332;51.954;20.118;2023-07-09T04:41:31;100630.90;;;22.66;50.53
35848;BME280;22332;51.954;20.118;2023-07-09T04:44:37;100635.15;;;22.77;50.35
35848;BME280;22332;51.954;20.118;2023-07-09T04:47:43;100637.86;;;22.78;50.25
35848;BME280;22332;51.954;20.118;2023-07-09T04:50:48;100638.19;;;22.66;50.08
35848;BME280;22332;51.954;20.118;2023-07-09T04:53:54;100641.52;;;22.49;50.56
35848;BME280;22332;51.954;20.118;2023-07-09T04:57:00;100646.89;;;22.52;50.55
35848;BME280;22332;51.954;20.118;2023-07-09T05:00:08;100647.11;;;22.46;50.51
35848;BME280;22332;51.954;20.118;2023-07-09T05:03:14;100648.15;;;22.26;50.55
35848;BME280;22332;51.954;20.118;2023-07-09T05:06:20;100646.41;;;22.01;50.67
35848;BME280;22332;51.954;20.118;2023-07-09T05:09:26;100644.95;;;21.92;50.67
35848;BME280;22332;51.954;20.118;2023-07-09T05:12:32;100643.05;;;21.67;51.11
35848;BME280;22332;51.954;20.118;2023-07-09T05:15:42;100646.52;;;21.62;51.36
35848;BME280;22332;51.954;20.118;2023-07-09T05:18:48;100647.85;;;21.69;51.58
35848;BME280;22332;51.954;20.118;2023-07-09T05:21:54;100643.10;;;21.56;51.51
35848;BME280;22332;51.954;20.118;2023-07-09T05:24:59;100645.42;;;21.50;51.68
35848;BME280;22332;51.954;20.118;2023-07-09T05:28:05;100646.59;;;21.52;51.73
35848;BME280;22332;51.954;20.118;2023-07-09T05:31:11;100647.36;;;21.74;51.74
35848;BME280;22332;51.954;20.118;2023-07-09T05:34:17;100650.56;;;21.97;51.41
35848;BME280;22332;51.954;20.118;2023-07-09T05:37:22;100657.54;;;22.19;51.33
35848;BME280;22332;51.954;20.118;2023-07-09T05:40:28;100659.45;;;22.21;51.24
35848;BME280;22332;51.954;20.118;2023-07-09T05:43:34;100660.07;;;22.14;51.50
35848;BME280;22332;51.954;20.118;2023-07-09T05:46:39;100662.32;;;22.03;51.06
35848;BME280;22332;51.954;20.118;2023-07-09T05:49:45;100663.31;;;22.04;51.38
35848;BME280;22332;51.954;20.118;2023-07-09T05:52:54;100655.76;;;22.22;51.16
35848;BME280;22332;51.954;20.118;2023-07-09T05:55:59;100650.70;;;22.41;51.28
35848;BME280;22332;51.954;20.118;2023-07-09T05:59:05;100651.16;;;22.45;51.07
35848;BME280;22332;51.954;20.118;2023-07-09T06:02:13;100655.15;;;22.34;51.41
35848;BME280;22332;51.954;20.118;2023-07-09T06:05:20;100654.20;;;22.37;51.27
35848;BME280;22332;51.954;20.118;2023-07-09T06:08:26;100656.26;;;22.56;51.12
35848;BME280;22332;51.954;20.118;2023-07-09T06:11:33;100663.20;;;22.53;50.81
35848;BME280;22332;51.954;20.118;2023-07-09T06:14:38;100661.79;;;22.42;50.70
35848;BME280;22332;51.954;20.118;2023-07-09T06:17:45;100656.85;;;22.46;50.78
35848;BME280;22332;51.954;20.118;2023-07-09T06:20:53;100658.73;;;22.53;50.55
35848;BME280;22332;51.954;20.118;2023-07-09T06:23:59;100668.01;;;22.48;50.46
35848;BME280;22332;51.954;20.118;2023-07-09T06:27:05;100667.98;;;22.46;50.68
35848;BME280;22332;51.954;20.118;2023-07-09T06:30:12;100673.46;;;22.34;50.53
35848;BME280;22332;51.954;20.118;2023-07-09T06:33:19;100671.37;;;22.22;50.47
35848;BME280;22332;51.954;20.118;2023-07-09T06:36:25;100678.64;;;22.08;50.88
35848;BME280;22332;51.954;20.118;2023-07-09T06:39:30;100682.80;;;22.02;51.11
35848;BME280;22332;51.954;20.118;2023-07-09T06:42:36;100684.83;;;22.07;51.19
35848;BME280;22332;51.954;20.118;2023-07-09T06:45:54;100681.89;;;22.17;51.19
35848;BME280;22332;51.954;20.118;2023-07-09T06:48:58;100676.73;;;22.13;51.05
35848;BME280;22332;51.954;20.118;2023-07-09T06:52:05;100681.41;;;22.12;51.31
35848;BME280;22332;51.954;20.118;2023-07-09T06:55:10;100685.68;;;22.19;51.17
35848;BME280;22332;51.954;20.118;2023-07-09T06:58:17;100686.75;;;22.24;51.19
35848;BME280;22332;51.954;20.118;2023-07-09T07:01:22;100685.86;;;22.27;51.35
35848;BME280;22332;51.954;20.118;2023-07-09T07:04:28;100682.36;;;22.23;51.22
35848;BME280;22332;51.954;20.118;2023-07-09T07:07:33;100679.70;;;22.23;51.12
35848;BME280;22332;51.954;20.118;2023-07-09T07:10:39;100682.65;;;22.25;50.86
35848;BME280;22332;51.954;20.118;2023-07-09T07:13:44;100678.48;;;22.29;50.84
35848;BME280;22332;51.954;20.118;2023-07-09T07:16:51;100677.24;;;22.32;50.56
35848;BME280;22332;51.954;20.118;2023-07-09T07:19:57;100680.27;;;22.30;50.31
35848;BME280;22332;51.954;20.118;2023-07-09T07:23:02;100677.85;;;22.35;50.34
35848;BME280;22332;51.954;20.118;2023-07-09T07:26:09;100685.05;;;22.45;50.05
35848;BME280;22332;51.954;20.118;2023-07-09T07:29:16;100688.67;;;22.53;50.17
35848;BME280;22332;51.954;20.118;2023-07-09T07:32:21;100689.57;;;22.57;49.85
35848;BME280;22332;51.954;20.118;2023-07-09T07:35:27;100684.20;;;22.58;50.00
35848;BME280;22332;51.954;20.118;2023-07-09T07:38:32;100685.17;;;22.66;49.99
35848;BME280;22332;51.954;20.118;2023-07-09T07:41:38;100683.23;;;22.77;49.90
35848;BME280;22332;51.954;20.118;2023-07-09T07:44:43;100683.05;;;22.81;49.71
35848;BME280;22332;51.954;20.118;2023-07-09T07:47:49;100683.82;;;22.90;49.81
35848;BME280;22332;51.954;20.118;2023-07-09T07:51:01;100683.45;;;23.00;49.51
35848;BME280;22332;51.954;20.118;2023-07-09T07:54:07;100683.23;;;23.07;49.15
35848;BME280;22332;51.954;20.118;2023-07-09T07:57:15;100680.70;;;23.06;48.71
35848;BME280;22332;51.954;20.118;2023-07-09T08:00:21;100680.80;;;23.11;49.24
35848;BME280;22332;51.954;20.118;2023-07-09T08:03:27;100676.83;;;23.23;48.45
35848;BME280;22332;51.954;20.118;2023-07-09T08:06:32;100674.16;;;23.25;48.39
35848;BME280;22332;51.954;20.118;2023-07-09T08:09:38;100671.10;;;23.29;48.84
35848;BME280;22332;51.954;20.118;2023-07-09T08:12:44;100675.66;;;23.38;48.44
35848;BME280;22332;51.954;20.118;2023-07-09T08:15:49;100674.88;;;23.46;48.42
35848;BME280;22332;51.954;20.118;2023-07-09T08:18:55;100678.11;;;23.59;48.77
35848;BME280;22332;51.954;20.118;2023-07-09T08:22:01;100672.56;;;23.70;48.03
35848;BME280;22332;51.954;20.118;2023-07-09T08:25:08;100672.27;;;23.77;47.65
35848;BME280;22332;51.954;20.118;2023-07-09T08:28:13;100671.34;;;23.86;47.88
35848;BME280;22332;51.954;20.118;2023-07-09T08:31:19;100669.26;;;23.96;47.80
35848;BME280;22332;51.954;20.118;2023-07-09T08:34:25;100672.61;;;24.00;46.14
35848;BME280;22332;51.954;20.118;2023-07-09T08:37:30;100670.98;;;24.00;46.26
35848;BME280;22332;51.954;20.118;2023-07-09T08:40:40;100670.10;;;24.05;46.70
35848;BME280;22332;51.954;20.118;2023-07-09T08:43:54;100668.32;;;24.12;46.41
35848;BME280;22332;51.954;20.118;2023-07-09T08:47:07;100666.83;;;24.22;45.76
35848;BME280;22332;51.954;20.118;2023-07-09T08:50:17;100665.22;;;24.25;45.86
35848;BME280;22332;51.954;20.118;2023-07-09T08:53:31;100659.42;;;24.34;45.32
35848;BME280;22332;51.954;20.118;2023-07-09T08:56:38;100654.97;;;24.34;45.66
35848;BME280;22332;51.954;20.118;2023-07-09T08:59:44;100658.16;;;24.40;45.79
35848;BME280;22332;51.954;20.118;2023-07-09T09:02:54;100656.24;;;24.44;44.86
35848;BME280;22332;51.954;20.118;2023-07-09T09:06:01;100659.87;;;24.49;43.67
35848;BME280;22332;51.954;20.118;2023-07-09T09:09:15;100659.27;;;24.53;42.97
35848;BME280;22332;51.954;20.118;2023-07-09T09:12:28;100666.03;;;24.53;42.82
35848;BME280;22332;51.954;20.118;2023-07-09T09:15:35;100664.94;;;24.55;43.85
35848;BME280;22332;51.954;20.118;2023-07-09T09:18:44;100657.14;;;24.64;44.11
35848;BME280;22332;51.954;20.118;2023-07-09T09:21:54;100652.61;;;24.69;42.88
35848;BME280;22332;51.954;20.118;2023-07-09T09:25:02;100654.24;;;24.69;42.80
35848;BME280;22332;51.954;20.118;2023-07-09T09:28:10;100661.77;;;24.70;41.95
35848;BME280;22332;51.954;20.118;2023-07-09T09:31:16;100653.61;;;24.72;42.92
35848;BME280;22332;51.954;20.118;2023-07-09T09:34:26;100653.84;;;24.75;42.48
35848;BME280;22332;51.954;20.118;2023-07-09T09:37:33;100657.88;;;24.77;42.13
35848;BME280;22332;51.954;20.118;2023-07-09T09:40:39;100655.63;;;24.79;41.35
35848;BME280;22332;51.954;20.118;2023-07-09T09:43:46;100659.95;;;24.84;41.30
35848;BME280;22332;51.954;20.118;2023-07-09T09:46:52;100660.77;;;24.87;41.39
35848;BME280;22332;51.954;20.118;2023-07-09T09:50:00;100653.04;;;24.90;41.51
35848;BME280;22332;51.954;20.118;2023-07-09T09:53:08;100654.00;;;24.92;40.69
35848;BME280;22332;51.954;20.118;2023-07-09T09:56:17;100651.80;;;25.01;41.26
35848;BME280;22332;51.954;20.118;2023-07-09T09:59:29;100648.52;;;25.10;41.09
35848;BME280;22332;51.954;20.118;2023-07-09T10:02:38;100652.20;;;25.19;39.81
35848;BME280;22332;51.954;20.118;2023-07-09T10:05:48;100651.89;;;25.22;40.18
35848;BME280;22332;51.954;20.118;2023-07-09T10:09:01;100648.77;;;25.25;40.06
35848;BME280;22332;51.954;20.118;2023-07-09T10:12:16;100650.55;;;25.27;38.50
35848;BME280;22332;51.954;20.118;2023-07-09T10:15:33;100656.14;;;25.25;38.47
35848;BME280;22332;51.954;20.118;2023-07-09T10:18:50;100657.32;;;25.27;36.33
35848;BME280;22332;51.954;20.118;2023-07-09T10:22:00;100656.30;;;25.25;36.89
35848;BME280;22332;51.954;20.118;2023-07-09T10:25:16;100652.42;;;25.30;35.40
35848;BME280;22332;51.954;20.118;2023-07-09T10:28:47;100646.33;;;25.42;35.44
35848;BME280;22332;51.954;20.118;2023-07-09T10:32:01;100653.52;;;25.56;36.20
35848;BME280;22332;51.954;20.118;2023-07-09T10:35:16;100653.33;;;25.62;34.56
35848;BME280;22332;51.954;20.118;2023-07-09T10:38:40;100649.62;;;25.59;36.23
35848;BME280;22332;51.954;20.118;2023-07-09T10:41:51;100649.29;;;25.71;35.70
35848;BME280;22332;51.954;20.118;2023-07-09T10:45:10;100640.54;;;25.77;34.88
35848;BME280;22332;51.954;20.118;2023-07-09T10:48:31;100643.11;;;25.80;32.93
35848;BME280;22332;51.954;20.118;2023-07-09T10:51:41;100642.06;;;25.82;32.85
35848;BME280;22332;51.954;20.118;2023-07-09T10:54:57;100641.39;;;25.83;33.70
35848;BME280;22332;51.954;20.118;2023-07-09T10:58:10;100640.49;;;25.86;32.70
35848;BME280;22332;51.954;20.118;2023-07-09T11:01:31;100637.61;;;25.87;33.25
35848;BME280;22332;51.954;20.118;2023-07-09T11:04:43;100643.77;;;25.89;32.78
35848;BME280;22332;51.954;20.118;2023-07-09T11:07:57;100639.42;;;25.94;33.43
35848;BME280;22332;51.954;20.118;2023-07-09T11:11:06;100641.02;;;26.01;31.73
35848;BME280;22332;51.954;20.118;2023-07-09T11:14:23;100641.32;;;26.03;32.18
35848;BME280;22332;51.954;20.118;2023-07-09T11:17:33;100636.44;;;26.05;32.53
35848;BME280;22332;51.954;20.118;2023-07-09T11:20:44;100634.85;;;26.04;32.00
35848;BME280;22332;51.954;20.118;2023-07-09T11:23:51;100643.48;;;26.04;31.77
35848;BME280;22332;51.954;20.118;2023-07-09T11:26:58;100646.45;;;26.05;31.62
35848;BME280;22332;51.954;20.118;2023-07-09T11:30:20;100638.54;;;26.06;31.75
35848;BME280;22332;51.954;20.118;2023-07-09T11:33:29;100641.56;;;26.10;31.44
35848;BME280;22332;51.954;20.118;2023-07-09T11:36:45;100640.42;;;26.13;31.87
35848;BME280;22332;51.954;20.118;2023-07-09T11:39:51;100638.29;;;26.20;32.03
35848;BME280;22332;51.954;20.118;2023-07-09T11:42:58;100634.80;;;26.27;32.60
35848;BME280;22332;51.954;20.118;2023-07-09T11:46:10;100634.20;;;26.38;32.40
35848;BME280;22332;51.954;20.118;2023-07-09T11:49:17;100639.10;;;26.51;32.31
35848;BME280;22332;51.954;20.118;2023-07-09T11:52:27;100640.33;;;26.61;32.38
35848;BME280;22332;51.954;20.118;2023-07-09T11:55:40;100631.83;;;26.70;32.71
35848;BME280;22332;51.954;20.118;2023-07-09T11:58:54;100636.73;;;26.73;31.06
35848;BME280;22332;51.954;20.118;2023-07-09T12:02:01;100632.09;;;26.74;31.69
35848;BME280;22332;51.954;20.118;2023-07-09T12:05:08;100628.57;;;26.73;31.81
35848;BME280;22332;51.954;20.118;2023-07-09T12:08:16;100625.89;;;26.76;31.99
35848;BME280;22332;51.954;20.118;2023-07-09T12:11:25;100626.27;;;26.82;31.43
35848;BME280;22332;51.954;20.118;2023-07-09T12:14:31;100623.61;;;26.81;30.99
35848;BME280;22332;51.954;20.118;2023-07-09T12:17:37;100623.52;;;26.79;31.14
35848;BME280;22332;51.954;20.118;2023-07-09T12:20:47;100619.85;;;26.79;30.36
35848;BME280;22332;51.954;20.118;2023-07-09T12:23:54;100616.16;;;26.84;30.52
35848;BME280;22332;51.954;20.118;2023-07-09T12:27:02;100619.77;;;26.96;30.11
35848;BME280;22332;51.954;20.118;2023-07-09T12:30:13;100614.86;;;27.06;31.27
35848;BME280;22332;51.954;20.118;2023-07-09T12:33:21;100612.31;;;27.22;31.40
35848;BME280;22332;51.954;20.118;2023-07-09T12:36:27;100613.61;;;27.37;30.39
35848;BME280;22332;51.954;20.118;2023-07-09T12:39:34;100609.86;;;27.49;30.20
35848;BME280;22332;51.954;20.118;2023-07-09T12:42:43;100602.52;;;27.54;29.86
35848;BME280;22332;51.954;20.118;2023-07-09T12:45:49;100604.50;;;27.65;30.36
35848;BME280;22332;51.954;20.118;2023-07-09T12:48:55;100604.23;;;27.76;30.07
35848;BME280;22332;51.954;20.118;2023-07-09T12:52:08;100599.19;;;27.83;30.46
35848;BME280;22332;51.954;20.118;2023-07-09T12:55:22;100598.62;;;27.81;29.84
35848;BME280;22332;51.954;20.118;2023-07-09T12:58:32;100596.10;;;27.82;30.17
35848;BME280;22332;51.954;20.118;2023-07-09T13:01:40;100593.13;;;27.79;29.74
35848;BME280;22332;51.954;20.118;2023-07-09T13:04:46;100591.81;;;27.80;30.14
35848;BME280;22332;51.954;20.118;2023-07-09T13:07:54;100591.65;;;27.79;28.99
35848;BME280;22332;51.954;20.118;2023-07-09T13:11:00;100593.50;;;27.72;28.88
35848;BME280;22332;51.954;20.118;2023-07-09T13:14:12;100600.97;;;27.69;28.44
35848;BME280;22332;51.954;20.118;2023-07-09T13:17:20;100602.35;;;27.64;28.97
35848;BME280;22332;51.954;20.118;2023-07-09T13:20:26;100600.80;;;27.63;28.89
35848;BME280;22332;51.954;20.118;2023-07-09T13:23:32;100599.27;;;27.62;28.50
35848;BME280;22332;51.954;20.118;2023-07-09T13:26:38;100589.84;;;27.63;29.16
35848;BME280;22332;51.954;20.118;2023-07-09T13:29:44;100584.71;;;27.66;29.63
35848;BME280;22332;51.954;20.118;2023-07-09T13:32:50;100585.87;;;27.72;29.34
35848;BME280;22332;51.954;20.118;2023-07-09T13:35:56;100586.09;;;27.73;29.38
35848;BME280;22332;51.954;20.118;2023-07-09T13:39:02;100583.30;;;27.68;29.29
35848;BME280;22332;51.954;20.118;2023-07-09T13:42:12;100586.34;;;27.69;29.63
35848;BME280;22332;51.954;20.118;2023-07-09T13:45:21;100583.61;;;27.70;29.58
35848;BME280;22332;51.954;20.118;2023-07-09T13:48:28;100585.73;;;27.67;28.70
35848;BME280;22332;51.954;20.118;2023-07-09T13:51:34;100583.53;;;27.62;28.33
35848;BME280;22332;51.954;20.118;2023-07-09T13:54:41;100581.87;;;27.56;28.27
35848;BME280;22332;51.954;20.118;2023-07-09T13:57:46;100575.31;;;27.53;29.03
35848;BME280;22332;51.954;20.118;2023-07-09T14:00:56;100573.64;;;27.56;28.93
35848;BME280;22332;51.954;20.118;2023-07-09T14:04:04;100574.77;;;27.58;29.36
35848;BME280;22332;51.954;20.118;2023-07-09T14:07:22;100570.75;;;27.62;29.15
35848;BME280;22332;51.954;20.118;2023-07-09T14:10:29;100575.05;;;27.59;28.76
35848;BME280;22332;51.954;20.118;2023-07-09T14:13:35;100573.92;;;27.57;29.23
35848;BME280;22332;51.954;20.118;2023-07-09T14:16:40;100568.27;;;27.54;29.01
35848;BME280;22332;51.954;20.118;2023-07-09T14:19:46;100572.59;;;27.44;28.68
35848;BME280;22332;51.954;20.118;2023-07-09T14:22:52;100569.70;;;27.35;28.85
35848;BME280;22332;51.954;20.118;2023-07-09T14:25:57;100567.77;;;27.34;29.36
35848;BME280;22332;51.954;20.118;2023-07-09T14:29:03;100563.73;;;27.30;29.01
35848;BME280;22332;51.954;20.118;2023-07-09T14:32:29;100568.92;;;27.22;29.23
35848;BME280;22332;51.954;20.118;2023-07-09T14:35:36;100561.42;;;27.19;29.42
35848;BME280;22332;51.954;20.118;2023-07-09T14:38:42;100559.98;;;27.21;29.63
35848;BME280;22332;51.954;20.118;2023-07-09T14:41:48;100558.90;;;27.23;29.48
35848;BME280;22332;51.954;20.118;2023-07-09T14:44:54;100554.73;;;27.26;29.81
35848;BME280;22332;51.954;20.118;2023-07-09T14:47:59;100555.14;;;27.31;29.71
35848;BME280;22332;51.954;20.118;2023-07-09T14:51:12;100549.76;;;27.30;29.94
35848;BME280;22332;51.954;20.118;2023-07-09T14:54:22;100549.95;;;27.21;29.59
35848;BME280;22332;51.954;20.118;2023-07-09T14:57:28;100550.20;;;27.11;29.62
35848;BME280;22332;51.954;20.118;2023-07-09T15:00:34;100546.35;;;27.03;29.79
35848;BME280;22332;51.954;20.118;2023-07-09T15:03:40;100542.48;;;27.01;29.78
35848;BME280;22332;51.954;20.118;2023-07-09T15:06:47;100538.75;;;27.00;29.95
35848;BME280;22332;51.954;20.118;2023-07-09T15:09:52;100538.05;;;27.01;30.10
35848;BME280;22332;51.954;20.118;2023-07-09T15:12:58;100543.38;;;27.01;29.48
35848;BME280;22332;51.954;20.118;2023-07-09T15:16:05;100541.15;;;26.99;29.64
35848;BME280;22332;51.954;20.118;2023-07-09T15:19:15;100535.86;;;27.01;29.75
35848;BME280;22332;51.954;20.118;2023-07-09T15:22:27;100538.08;;;27.02;30.07
35848;BME280;22332;51.954;20.118;2023-07-09T15:25:34;100538.42;;;27.05;30.20
35848;BME280;22332;51.954;20.118;2023-07-09T15:28:39;100533.05;;;27.05;29.94
35848;BME280;22332;51.954;20.118;2023-07-09T15:31:45;100529.19;;;27.07;30.09
35848;BME280;22332;51.954;20.118;2023-07-09T15:34:50;100539.59;;;27.06;30.26
35848;BME280;22332;51.954;20.118;2023-07-09T15:37:56;100535.20;;;27.00;30.05
35848;BME280;22332;51.954;20.118;2023-07-09T15:41:01;100539.14;;;26.96;30.09
35848;BME280;22332;51.954;20.118;2023-07-09T15:44:10;100538.10;;;26.92;30.03
35848;BME280;22332;51.954;20.118;2023-07-09T15:47:21;100531.23;;;26.90;30.21
35848;BME280;22332;51.954;20.118;2023-07-09T15:50:34;100528.39;;;26.90;30.30
35848;BME280;22332;51.954;20.118;2023-07-09T15:53:40;100526.13;;;26.90;30.10
35848;BME280;22332;51.954;20.118;2023-07-09T15:56:48;100530.08;;;26.89;30.38
35848;BME280;22332;51.954;20.118;2023-07-09T15:59:54;100528.67;;;26.91;30.22
35848;BME280;22332;51.954;20.118;2023-07-09T16:03:00;100531.99;;;26.90;30.20
35848;BME280;22332;51.954;20.118;2023-07-09T16:06:07;100527.88;;;26.89;30.26
35848;BME280;22332;51.954;20.118;2023-07-09T16:09:14;100527.67;;;26.86;30.22